To NAV CANADA Home Page Login to a new session Search on AWWS site Feedback and Comments Disclaimer Vers la page française équivalente Tips FAQ What's new on the site To the Forecasts and Observations / NOTAM section To "File a Flight Plan" website Publications and other links Update of the User's profile FIC Telephone Numbers My Weather Data Folder Route Weather Data Regional Weather Data Local Weather Data To the Forecasts and Observations / NOTAM section
Request Generated 07/06/2015 at 18:01:52 UTC . Weather information available at that time is displayed.

METAR/TAF

GRANDE PRAIRIE/AB    

METAR CYQU 061700Z VRB03KT 25SM SCT240 18/10 A3008 RMK CI3 SLP195
DENSITY ALT 2800FT=
METAR CYQU 061600Z VRB02KT 20SM SCT240 16/10 A3008 RMK CI3 SLP195
DENSITY ALT 2600FT=
METAR CYQU 061500Z 27004KT 230V340 20SM FEW200 14/09 A3009 RMK CI2
SLP197 DENSITY ALT 2300FT=

TAF CYQU 061238Z 0613/0701 VRB03KT P6SM FEW200
BECMG 0619/0621 31008KT
FM070000 33006KT P6SM VCSH BKN070
RMK NXT FCST BY 061900Z=
Your time UTC time
Weather data provided by Environment Canada and NAV CANADA